sensor_id;sensor_type;location;lat;lon;timestamp;P1;durP1;ratioP1;P2;durP2;ratioP2
24557;SDS011;12726;49.148;8.582;2023-11-21T00:01:15;5.00;;;1.00;;
24557;SDS011;12726;49.148;8.582;2023-11-21T00:04:00;5.00;;;1.30;;
24557;SDS011;12726;49.148;8.582;2023-11-21T00:06:46;7.07;;;1.60;;
24557;SDS011;12726;49.148;8.582;2023-11-21T00:09:32;2.90;;;1.25;;
24557;SDS011;12726;49.148;8.582;2023-11-21T00:12:20;4.82;;;1.30;;
24557;SDS011;12726;49.148;8.582;2023-11-21T00:15:05;2.20;;;1.10;;
24557;SDS011;12726;49.148;8.582;2023-11-21T00:17:53;6.65;;;1.38;;
24557;SDS011;12726;49.148;8.582;2023-11-21T00:20:38;4.60;;;1.20;;
24557;SDS011;12726;49.148;8.582;2023-11-21T00:23:24;6.65;;;1.30;;
24557;SDS011;12726;49.148;8.582;2023-11-21T00:26:11;5.07;;;0.98;;
24557;SDS011;12726;49.148;8.582;2023-11-21T00:28:56;6.95;;;1.52;;
24557;SDS011;12726;49.148;8.582;2023-11-21T00:31:42;3.38;;;0.90;;
24557;SDS011;12726;49.148;8.582;2023-11-21T00:34:27;4.13;;;1.13;;
24557;SDS011;12726;49.148;8.582;2023-11-21T00:37:12;5.53;;;1.50;;
24557;SDS011;12726;49.148;8.582;2023-11-21T00:39:57;9.65;;;1.25;;
24557;SDS011;12726;49.148;8.582;2023-11-21T00:42:44;5.05;;;1.60;;
24557;SDS011;12726;49.148;8.582;2023-11-21T00:45:30;4.15;;;1.08;;
24557;SDS011;12726;49.148;8.582;2023-11-21T00:48:15;4.50;;;1.70;;
24557;SDS011;12726;49.148;8.582;2023-11-21T00:51:01;4.95;;;1.27;;
24557;SDS011;12726;49.148;8.582;2023-11-21T00:53:46;4.32;;;1.17;;
24557;SDS011;12726;49.148;8.582;2023-11-21T00:56:32;6.70;;;1.13;;
24557;SDS011;12726;49.148;8.582;2023-11-21T00:59:20;8.30;;;1.88;;
24557;SDS011;12726;49.148;8.582;2023-11-21T01:02:06;4.40;;;1.45;;
24557;SDS011;12726;49.148;8.582;2023-11-21T01:04:54;4.35;;;1.40;;
24557;SDS011;12726;49.148;8.582;2023-11-21T01:07:39;5.35;;;1.48;;
24557;SDS011;12726;49.148;8.582;2023-11-21T01:10:25;7.47;;;1.50;;
24557;SDS011;12726;49.148;8.582;2023-11-21T01:13:10;8.45;;;1.35;;
24557;SDS011;12726;49.148;8.582;2023-11-21T01:15:57;4.97;;;0.93;;
24557;SDS011;12726;49.148;8.582;2023-11-21T01:18:42;2.70;;;1.08;;
24557;SDS011;12726;49.148;8.582;2023-11-21T01:21:28;2.70;;;1.10;;
24557;SDS011;12726;49.148;8.582;2023-11-21T01:24:14;4.83;;;1.07;;
24557;SDS011;12726;49.148;8.582;2023-11-21T01:26:59;7.05;;;1.15;;
24557;SDS011;12726;49.148;8.582;2023-11-21T01:29:45;3.30;;;1.20;;
24557;SDS011;12726;49.148;8.582;2023-11-21T01:32:32;5.68;;;1.30;;
24557;SDS011;12726;49.148;8.582;2023-11-21T01:35:17;3.47;;;1.05;;
24557;SDS011;12726;49.148;8.582;2023-11-21T01:38:02;9.60;;;1.45;;
24557;SDS011;12726;49.148;8.582;2023-11-21T01:40:48;7.22;;;1.38;;
24557;SDS011;12726;49.148;8.582;2023-11-21T01:43:34;4.25;;;1.10;;
24557;SDS011;12726;49.148;8.582;2023-11-21T01:46:19;3.35;;;0.90;;
24557;SDS011;12726;49.148;8.582;2023-11-21T01:49:08;5.85;;;1.08;;
24557;SDS011;12726;49.148;8.582;2023-11-21T01:51:56;4.78;;;1.35;;
24557;SDS011;12726;49.148;8.582;2023-11-21T01:54:42;2.70;;;1.13;;
24557;SDS011;12726;49.148;8.582;2023-11-21T01:57:27;3.70;;;1.08;;
24557;SDS011;12726;49.148;8.582;2023-11-21T02:00:13;3.05;;;1.00;;
24557;SDS011;12726;49.148;8.582;2023-11-21T02:03:03;4.78;;;1.35;;
24557;SDS011;12726;49.148;8.582;2023-11-21T02:05:49;3.47;;;1.10;;
24557;SDS011;12726;49.148;8.582;2023-11-21T02:08:35;4.03;;;1.20;;
24557;SDS011;12726;49.148;8.582;2023-11-21T02:11:21;1.58;;;0.75;;
24557;SDS011;12726;49.148;8.582;2023-11-21T02:14:07;6.65;;;1.33;;
24557;SDS011;12726;49.148;8.582;2023-11-21T02:16:55;4.75;;;1.10;;
24557;SDS011;12726;49.148;8.582;2023-11-21T02:19:44;1.73;;;0.82;;
24557;SDS011;12726;49.148;8.582;2023-11-21T02:22:32;3.35;;;1.00;;
24557;SDS011;12726;49.148;8.582;2023-11-21T02:25:25;3.78;;;1.20;;
24557;SDS011;12726;49.148;8.582;2023-11-21T02:28:11;3.38;;;1.05;;
24557;SDS011;12726;49.148;8.582;2023-11-21T02:30:59;6.68;;;1.40;;
24557;SDS011;12726;49.148;8.582;2023-11-21T02:33:44;4.57;;;1.10;;
24557;SDS011;12726;49.148;8.582;2023-11-21T02:36:29;8.02;;;1.27;;
24557;SDS011;12726;49.148;8.582;2023-11-21T02:39:15;4.70;;;1.00;;
24557;SDS011;12726;49.148;8.582;2023-11-21T02:42:02;4.30;;;1.58;;
24557;SDS011;12726;49.148;8.582;2023-11-21T02:44:47;2.97;;;1.20;;
24557;SDS011;12726;49.148;8.582;2023-11-21T02:47:33;5.90;;;1.05;;
24557;SDS011;12726;49.148;8.582;2023-11-21T02:50:18;4.88;;;0.93;;
24557;SDS011;12726;49.148;8.582;2023-11-21T02:53:03;3.25;;;0.90;;
24557;SDS011;12726;49.148;8.582;2023-11-21T02:55:49;2.13;;;1.15;;
24557;SDS011;12726;49.148;8.582;2023-11-21T02:58:36;4.43;;;1.42;;
24557;SDS011;12726;49.148;8.582;2023-11-21T03:01:22;6.72;;;1.05;;
24557;SDS011;12726;49.148;8.582;2023-11-21T03:04:08;5.50;;;1.20;;
24557;SDS011;12726;49.148;8.582;2023-11-21T03:06:54;4.18;;;1.40;;
24557;SDS011;12726;49.148;8.582;2023-11-21T03:09:39;2.85;;;1.20;;
24557;SDS011;12726;49.148;8.582;2023-11-21T03:12:25;6.10;;;1.20;;
24557;SDS011;12726;49.148;8.582;2023-11-21T03:15:11;5.13;;;1.20;;
24557;SDS011;12726;49.148;8.582;2023-11-21T03:17:57;6.63;;;1.25;;
24557;SDS011;12726;49.148;8.582;2023-11-21T03:20:43;6.57;;;1.40;;
24557;SDS011;12726;49.148;8.582;2023-11-21T03:23:30;4.60;;;1.10;;
24557;SDS011;12726;49.148;8.582;2023-11-21T03:26:15;6.97;;;1.38;;
24557;SDS011;12726;49.148;8.582;2023-11-21T03:29:00;3.08;;;1.40;;
24557;SDS011;12726;49.148;8.582;2023-11-21T03:31:47;5.50;;;1.23;;
24557;SDS011;12726;49.148;8.582;2023-11-21T03:34:32;4.00;;;1.30;;
24557;SDS011;12726;49.148;8.582;2023-11-21T03:37:18;2.22;;;1.05;;
24557;SDS011;12726;49.148;8.582;2023-11-21T03:40:06;8.35;;;1.70;;
24557;SDS011;12726;49.148;8.582;2023-11-21T03:42:52;2.95;;;1.33;;
24557;SDS011;12726;49.148;8.582;2023-11-21T03:45:37;3.38;;;1.00;;
24557;SDS011;12726;49.148;8.582;2023-11-21T03:48:25;4.25;;;1.17;;
24557;SDS011;12726;49.148;8.582;2023-11-21T03:51:11;4.57;;;1.40;;
24557;SDS011;12726;49.148;8.582;2023-11-21T03:53:59;3.75;;;1.17;;
24557;SDS011;12726;49.148;8.582;2023-11-21T03:56:44;4.47;;;1.25;;
24557;SDS011;12726;49.148;8.582;2023-11-21T03:59:30;3.42;;;1.27;;
24557;SDS011;12726;49.148;8.582;2023-11-21T04:02:15;7.40;;;1.45;;
24557;SDS011;12726;49.148;8.582;2023-11-21T04:05:02;4.03;;;1.30;;
24557;SDS011;12726;49.148;8.582;2023-11-21T04:07:48;4.25;;;1.38;;
24557;SDS011;12726;49.148;8.582;2023-11-21T04:10:35;6.22;;;1.60;;
24557;SDS011;12726;49.148;8.582;2023-11-21T04:13:20;7.35;;;1.40;;
24557;SDS011;12726;49.148;8.582;2023-11-21T04:16:05;4.40;;;1.95;;
24557;SDS011;12726;49.148;8.582;2023-11-21T04:18:52;3.47;;;1.42;;
24557;SDS011;12726;49.148;8.582;2023-11-21T04:21:38;6.65;;;1.33;;
24557;SDS011;12726;49.148;8.582;2023-11-21T04:24:23;3.03;;;1.20;;
24557;SDS011;12726;49.148;8.582;2023-11-21T04:27:08;4.32;;;1.80;;
24557;SDS011;12726;49.148;8.582;2023-11-21T04:29:53;5.38;;;1.48;;
24557;SDS011;12726;49.148;8.582;2023-11-21T04:32:39;6.28;;;1.70;;
24557;SDS011;12726;49.148;8.582;2023-11-21T04:35:25;5.57;;;1.50;;
24557;SDS011;12726;49.148;8.582;2023-11-21T04:38:14;5.30;;;1.50;;
24557;SDS011;12726;49.148;8.582;2023-11-21T04:41:00;4.90;;;1.70;;
24557;SDS011;12726;49.148;8.582;2023-11-21T04:43:45;4.00;;;1.50;;
24557;SDS011;12726;49.148;8.582;2023-11-21T04:46:30;2.70;;;1.40;;
24557;SDS011;12726;49.148;8.582;2023-11-21T04:49:16;2.60;;;1.02;;
24557;SDS011;12726;49.148;8.582;2023-11-21T04:52:01;6.70;;;1.35;;
24557;SDS011;12726;49.148;8.582;2023-11-21T04:54:48;3.95;;;1.75;;
24557;SDS011;12726;49.148;8.582;2023-11-21T04:57:33;2.72;;;1.40;;
24557;SDS011;12726;49.148;8.582;2023-11-21T05:00:19;7.15;;;1.55;;
24557;SDS011;12726;49.148;8.582;2023-11-21T05:03:05;5.72;;;1.38;;
24557;SDS011;12726;49.148;8.582;2023-11-21T05:05:51;7.43;;;1.80;;
24557;SDS011;12726;49.148;8.582;2023-11-21T05:08:37;2.70;;;1.50;;
24557;SDS011;12726;49.148;8.582;2023-11-21T05:11:27;5.65;;;1.60;;
24557;SDS011;12726;49.148;8.582;2023-11-21T05:14:13;2.88;;;1.50;;
24557;SDS011;12726;49.148;8.582;2023-11-21T05:16:58;3.92;;;1.77;;
24557;SDS011;12726;49.148;8.582;2023-11-21T05:19:44;5.60;;;1.90;;
24557;SDS011;12726;49.148;8.582;2023-11-21T05:22:32;4.63;;;1.83;;
24557;SDS011;12726;49.148;8.582;2023-11-21T05:25:17;3.53;;;1.42;;
24557;SDS011;12726;49.148;8.582;2023-11-21T05:28:04;3.90;;;1.70;;
24557;SDS011;12726;49.148;8.582;2023-11-21T05:30:50;3.60;;;1.63;;
24557;SDS011;12726;49.148;8.582;2023-11-21T05:33:36;7.97;;;1.77;;
24557;SDS011;12726;49.148;8.582;2023-11-21T05:36:22;3.45;;;1.95;;
24557;SDS011;12726;49.148;8.582;2023-11-21T05:39:08;4.72;;;1.77;;
24557;SDS011;12726;49.148;8.582;2023-11-21T05:41:54;4.03;;;1.75;;
24557;SDS011;12726;49.148;8.582;2023-11-21T05:44:43;4.07;;;2.40;;
24557;SDS011;12726;49.148;8.582;2023-11-21T05:47:28;6.38;;;2.17;;
24557;SDS011;12726;49.148;8.582;2023-11-21T05:50:16;6.15;;;2.55;;
24557;SDS011;12726;49.148;8.582;2023-11-21T05:53:01;4.57;;;2.50;;
24557;SDS011;12726;49.148;8.582;2023-11-21T05:55:47;7.32;;;2.67;;
24557;SDS011;12726;49.148;8.582;2023-11-21T05:58:32;8.15;;;2.72;;
24557;SDS011;12726;49.148;8.582;2023-11-21T06:04:27;5.70;;;2.97;;
24557;SDS011;12726;49.148;8.582;2023-11-21T06:07:12;4.82;;;2.75;;
24557;SDS011;12726;49.148;8.582;2023-11-21T06:09:58;7.38;;;3.65;;
24557;SDS011;12726;49.148;8.582;2023-11-21T06:12:46;7.32;;;2.50;;
24557;SDS011;12726;49.148;8.582;2023-11-21T06:15:31;4.70;;;2.42;;
24557;SDS011;12726;49.148;8.582;2023-11-21T06:18:18;4.28;;;2.40;;
24557;SDS011;12726;49.148;8.582;2023-11-21T06:21:04;7.35;;;2.92;;
24557;SDS011;12726;49.148;8.582;2023-11-21T06:23:49;5.20;;;2.55;;
24557;SDS011;12726;49.148;8.582;2023-11-21T06:26:36;6.43;;;3.22;;
24557;SDS011;12726;49.148;8.582;2023-11-21T06:29:22;3.53;;;2.55;;
24557;SDS011;12726;49.148;8.582;2023-11-21T06:32:08;7.47;;;2.80;;
24557;SDS011;12726;49.148;8.582;2023-11-21T06:34:54;5.72;;;3.10;;
24557;SDS011;12726;49.148;8.582;2023-11-21T06:37:42;6.97;;;2.40;;
24557;SDS011;12726;49.148;8.582;2023-11-21T06:40:31;3.88;;;2.92;;
24557;SDS011;12726;49.148;8.582;2023-11-21T06:43:17;4.68;;;2.78;;
24557;SDS011;12726;49.148;8.582;2023-11-21T06:46:02;5.93;;;3.28;;
24557;SDS011;12726;49.148;8.582;2023-11-21T06:48:48;9.07;;;3.85;;
24557;SDS011;12726;49.148;8.582;2023-11-21T06:51:35;7.75;;;3.13;;
24557;SDS011;12726;49.148;8.582;2023-11-21T06:54:21;10.77;;;4.90;;
24557;SDS011;12726;49.148;8.582;2023-11-21T06:57:06;3.97;;;2.90;;
24557;SDS011;12726;49.148;8.582;2023-11-21T06:59:52;7.05;;;3.30;;
24557;SDS011;12726;49.148;8.582;2023-11-21T07:02:39;5.45;;;3.30;;
24557;SDS011;12726;49.148;8.582;2023-11-21T07:08:18;4.05;;;3.25;;
24557;SDS011;12726;49.148;8.582;2023-11-21T07:11:03;6.32;;;3.22;;
24557;SDS011;12726;49.148;8.582;2023-11-21T07:13:49;5.05;;;3.30;;
24557;SDS011;12726;49.148;8.582;2023-11-21T07:16:34;4.15;;;3.20;;
24557;SDS011;12726;49.148;8.582;2023-11-21T07:19:21;5.05;;;3.17;;
24557;SDS011;12726;49.148;8.582;2023-11-21T07:22:06;3.45;;;2.95;;
24557;SDS011;12726;49.148;8.582;2023-11-21T07:24:53;5.07;;;3.13;;
24557;SDS011;12726;49.148;8.582;2023-11-21T07:27:40;9.50;;;4.38;;
24557;SDS011;12726;49.148;8.582;2023-11-21T07:30:25;9.25;;;4.25;;
24557;SDS011;12726;49.148;8.582;2023-11-21T07:33:10;5.65;;;4.28;;
24557;SDS011;12726;49.148;8.582;2023-11-21T07:35:56;5.85;;;4.32;;
24557;SDS011;12726;49.148;8.582;2023-11-21T07:38:41;9.95;;;4.47;;
24557;SDS011;12726;49.148;8.582;2023-11-21T07:41:28;5.82;;;4.22;;
24557;SDS011;12726;49.148;8.582;2023-11-21T07:44:14;6.15;;;3.90;;
24557;SDS011;12726;49.148;8.582;2023-11-21T07:47:01;7.63;;;4.20;;
24557;SDS011;12726;49.148;8.582;2023-11-21T07:49:46;6.28;;;4.30;;
24557;SDS011;12726;49.148;8.582;2023-11-21T07:52:31;7.35;;;4.45;;
24557;SDS011;12726;49.148;8.582;2023-11-21T07:55:17;7.60;;;4.28;;
24557;SDS011;12726;49.148;8.582;2023-11-21T07:58:04;6.45;;;4.15;;
24557;SDS011;12726;49.148;8.582;2023-11-21T08:00:49;8.77;;;4.43;;
24557;SDS011;12726;49.148;8.582;2023-11-21T08:03:36;7.55;;;4.22;;
24557;SDS011;12726;49.148;8.582;2023-11-21T08:06:21;8.85;;;4.30;;
24557;SDS011;12726;49.148;8.582;2023-11-21T08:09:06;11.27;;;5.10;;
24557;SDS011;12726;49.148;8.582;2023-11-21T08:11:52;11.43;;;7.47;;
24557;SDS011;12726;49.148;8.582;2023-11-21T08:14:39;8.02;;;4.95;;
24557;SDS011;12726;49.148;8.582;2023-11-21T08:17:24;6.97;;;5.25;;
24557;SDS011;12726;49.148;8.582;2023-11-21T08:20:10;9.20;;;5.47;;
24557;SDS011;12726;49.148;8.582;2023-11-21T08:22:56;7.28;;;5.22;;
24557;SDS011;12726;49.148;8.582;2023-11-21T08:25:42;7.65;;;5.40;;
24557;SDS011;12726;49.148;8.582;2023-11-21T08:28:28;8.30;;;5.85;;
24557;SDS011;12726;49.148;8.582;2023-11-21T08:31:15;9.50;;;6.05;;
24557;SDS011;12726;49.148;8.582;2023-11-21T08:34:00;13.05;;;7.15;;
24557;SDS011;12726;49.148;8.582;2023-11-21T08:36:46;11.40;;;7.10;;
24557;SDS011;12726;49.148;8.582;2023-11-21T08:39:32;11.10;;;6.68;;
24557;SDS011;12726;49.148;8.582;2023-11-21T08:42:17;17.60;;;9.40;;
24557;SDS011;12726;49.148;8.582;2023-11-21T08:45:03;84.15;;;40.90;;
24557;SDS011;12726;49.148;8.582;2023-11-21T08:47:51;38.25;;;21.05;;
24557;SDS011;12726;49.148;8.582;2023-11-21T08:50:36;65.10;;;34.83;;
24557;SDS011;12726;49.148;8.582;2023-11-21T08:53:21;41.83;;;24.60;;
24557;SDS011;12726;49.148;8.582;2023-11-21T08:56:07;21.60;;;13.55;;
24557;SDS011;12726;49.148;8.582;2023-11-21T08:58:56;16.00;;;10.05;;
24557;SDS011;12726;49.148;8.582;2023-11-21T09:01:42;18.10;;;9.77;;
24557;SDS011;12726;49.148;8.582;2023-11-21T09:04:28;16.33;;;9.93;;
24557;SDS011;12726;49.148;8.582;2023-11-21T09:07:14;16.77;;;10.25;;
24557;SDS011;12726;49.148;8.582;2023-11-21T09:09:59;19.23;;;11.20;;
24557;SDS011;12726;49.148;8.582;2023-11-21T09:12:44;16.45;;;11.27;;
24557;SDS011;12726;49.148;8.582;2023-11-21T09:15:30;17.00;;;10.10;;
24557;SDS011;12726;49.148;8.582;2023-11-21T09:18:15;17.38;;;11.80;;
24557;SDS011;12726;49.148;8.582;2023-11-21T09:21:02;21.17;;;12.10;;
24557;SDS011;12726;49.148;8.582;2023-11-21T09:23:48;19.77;;;13.10;;
24557;SDS011;12726;49.148;8.582;2023-11-21T09:26:33;23.15;;;12.95;;
24557;SDS011;12726;49.148;8.582;2023-11-21T09:29:18;18.75;;;12.07;;
24557;SDS011;12726;49.148;8.582;2023-11-21T09:32:04;18.10;;;12.05;;
24557;SDS011;12726;49.148;8.582;2023-11-21T09:34:50;20.10;;;12.55;;
24557;SDS011;12726;49.148;8.582;2023-11-21T09:37:37;19.98;;;12.82;;
24557;SDS011;12726;49.148;8.582;2023-11-21T09:40:22;19.80;;;13.05;;
24557;SDS011;12726;49.148;8.582;2023-11-21T09:43:08;24.80;;;13.75;;
24557;SDS011;12726;49.148;8.582;2023-11-21T09:46:01;22.27;;;13.50;;
24557;SDS011;12726;49.148;8.582;2023-11-21T09:48:54;22.80;;;13.15;;
24557;SDS011;12726;49.148;8.582;2023-11-21T09:51:42;29.95;;;15.25;;
24557;SDS011;12726;49.148;8.582;2023-11-21T09:54:29;27.65;;;15.23;;
24557;SDS011;12726;49.148;8.582;2023-11-21T09:57:16;23.60;;;13.82;;
24557;SDS011;12726;49.148;8.582;2023-11-21T10:00:03;26.52;;;15.48;;
24557;SDS011;12726;49.148;8.582;2023-11-21T10:02:55;21.13;;;13.52;;
24557;SDS011;12726;49.148;8.582;2023-11-21T10:05:43;21.65;;;12.45;;
24557;SDS011;12726;49.148;8.582;2023-11-21T10:11:31;13.77;;;9.93;;
24557;SDS011;12726;49.148;8.582;2023-11-21T10:14:17;17.67;;;10.02;;
24557;SDS011;12726;49.148;8.582;2023-11-21T10:17:06;19.13;;;11.50;;
24557;SDS011;12726;49.148;8.582;2023-11-21T10:19:53;23.88;;;14.25;;
24557;SDS011;12726;49.148;8.582;2023-11-21T10:22:39;17.42;;;11.18;;
24557;SDS011;12726;49.148;8.582;2023-11-21T10:25:25;19.33;;;11.90;;
24557;SDS011;12726;49.148;8.582;2023-11-21T10:28:14;22.58;;;12.43;;
24557;SDS011;12726;49.148;8.582;2023-11-21T10:31:00;26.08;;;13.82;;
24557;SDS011;12726;49.148;8.582;2023-11-21T10:33:46;24.13;;;12.93;;
24557;SDS011;12726;49.148;8.582;2023-11-21T10:36:32;17.40;;;10.65;;
24557;SDS011;12726;49.148;8.582;2023-11-21T10:39:20;16.30;;;10.48;;
24557;SDS011;12726;49.148;8.582;2023-11-21T10:42:08;15.73;;;10.80;;
24557;SDS011;12726;49.148;8.582;2023-11-21T10:44:57;15.55;;;11.23;;
24557;SDS011;12726;49.148;8.582;2023-11-21T10:47:44;14.90;;;10.73;;
24557;SDS011;12726;49.148;8.582;2023-11-21T10:50:29;15.48;;;11.57;;
24557;SDS011;12726;49.148;8.582;2023-11-21T10:53:15;15.95;;;11.48;;
24557;SDS011;12726;49.148;8.582;2023-11-21T10:56:05;14.23;;;10.55;;
24557;SDS011;12726;49.148;8.582;2023-11-21T10:58:54;12.35;;;8.50;;
24557;SDS011;12726;49.148;8.582;2023-11-21T11:01:41;10.82;;;8.48;;
24557;SDS011;12726;49.148;8.582;2023-11-21T11:04:29;8.98;;;7.15;;
24557;SDS011;12726;49.148;8.582;2023-11-21T11:07:15;11.75;;;7.63;;
24557;SDS011;12726;49.148;8.582;2023-11-21T11:10:01;8.98;;;5.97;;
24557;SDS011;12726;49.148;8.582;2023-11-21T11:12:48;7.88;;;5.90;;
24557;SDS011;12726;49.148;8.582;2023-11-21T11:15:33;15.35;;;7.63;;
24557;SDS011;12726;49.148;8.582;2023-11-21T11:18:24;15.48;;;9.32;;
24557;SDS011;12726;49.148;8.582;2023-11-21T11:21:11;11.65;;;6.68;;
24557;SDS011;12726;49.148;8.582;2023-11-21T11:24:12;8.38;;;5.18;;
24557;SDS011;12726;49.148;8.582;2023-11-21T11:27:07;6.30;;;3.60;;
24557;SDS011;12726;49.148;8.582;2023-11-21T11:30:04;3.40;;;2.67;;
24557;SDS011;12726;49.148;8.582;2023-11-21T11:32:58;7.05;;;4.00;;
24557;SDS011;12726;49.148;8.582;2023-11-21T11:35:54;4.55;;;3.17;;
24557;SDS011;12726;49.148;8.582;2023-11-21T11:38:46;3.80;;;2.30;;
24557;SDS011;12726;49.148;8.582;2023-11-21T11:41:33;4.18;;;2.83;;
24557;SDS011;12726;49.148;8.582;2023-11-21T11:47:35;5.43;;;3.13;;
24557;SDS011;12726;49.148;8.582;2023-11-21T11:50:21;5.20;;;3.13;;
24557;SDS011;12726;49.148;8.582;2023-11-21T11:53:13;6.18;;;3.70;;
24557;SDS011;12726;49.148;8.582;2023-11-21T11:56:14;7.13;;;4.72;;
24557;SDS011;12726;49.148;8.582;2023-11-21T11:59:06;6.38;;;3.95;;
24557;SDS011;12726;49.148;8.582;2023-11-21T12:01:53;5.22;;;3.65;;
24557;SDS011;12726;49.148;8.582;2023-11-21T12:04:42;7.20;;;4.30;;
24557;SDS011;12726;49.148;8.582;2023-11-21T12:07:38;12.50;;;6.03;;
24557;SDS011;12726;49.148;8.582;2023-11-21T12:10:28;14.02;;;6.90;;
24557;SDS011;12726;49.148;8.582;2023-11-21T12:13:14;13.68;;;5.55;;
24557;SDS011;12726;49.148;8.582;2023-11-21T12:16:01;6.70;;;4.55;;
24557;SDS011;12726;49.148;8.582;2023-11-21T12:18:46;8.52;;;5.63;;
24557;SDS011;12726;49.148;8.582;2023-11-21T12:21:32;8.48;;;5.30;;
24557;SDS011;12726;49.148;8.582;2023-11-21T12:24:18;10.25;;;6.05;;
24557;SDS011;12726;49.148;8.582;2023-11-21T12:27:05;10.35;;;6.10;;
24557;SDS011;12726;49.148;8.582;2023-11-21T12:29:50;10.18;;;6.22;;
24557;SDS011;12726;49.148;8.582;2023-11-21T12:32:36;14.32;;;7.57;;
24557;SDS011;12726;49.148;8.582;2023-11-21T12:35:22;12.93;;;7.22;;
24557;SDS011;12726;49.148;8.582;2023-11-21T12:38:10;10.73;;;7.35;;
24557;SDS011;12726;49.148;8.582;2023-11-21T12:40:55;10.23;;;6.57;;
24557;SDS011;12726;49.148;8.582;2023-11-21T12:43:42;12.48;;;6.70;;
24557;SDS011;12726;49.148;8.582;2023-11-21T12:46:28;11.65;;;7.32;;
24557;SDS011;12726;49.148;8.582;2023-11-21T12:49:17;8.23;;;5.68;;
24557;SDS011;12726;49.148;8.582;2023-11-21T12:52:02;9.40;;;6.45;;
24557;SDS011;12726;49.148;8.582;2023-11-21T12:54:48;8.32;;;5.45;;
24557;SDS011;12726;49.148;8.582;2023-11-21T12:57:33;9.07;;;5.55;;
24557;SDS011;12726;49.148;8.582;2023-11-21T13:00:29;9.73;;;5.18;;
24557;SDS011;12726;49.148;8.582;2023-11-21T13:03:20;10.52;;;6.25;;
24557;SDS011;12726;49.148;8.582;2023-11-21T13:06:09;8.40;;;5.47;;
24557;SDS011;12726;49.148;8.582;2023-11-21T13:08:56;8.52;;;4.38;;
24557;SDS011;12726;49.148;8.582;2023-11-21T13:11:44;5.45;;;3.88;;
24557;SDS011;12726;49.148;8.582;2023-11-21T13:14:29;4.95;;;3.72;;
24557;SDS011;12726;49.148;8.582;2023-11-21T13:17:17;4.22;;;3.20;;
24557;SDS011;12726;49.148;8.582;2023-11-21T13:20:03;6.38;;;3.50;;
24557;SDS011;12726;49.148;8.582;2023-11-21T13:22:53;4.15;;;3.75;;
24557;SDS011;12726;49.148;8.582;2023-11-21T13:25:41;4.10;;;3.08;;
24557;SDS011;12726;49.148;8.582;2023-11-21T13:28:26;7.03;;;4.45;;
24557;SDS011;12726;49.148;8.582;2023-11-21T13:31:15;12.60;;;6.25;;
24557;SDS011;12726;49.148;8.582;2023-11-21T13:34:13;5.78;;;3.75;;
24557;SDS011;12726;49.148;8.582;2023-11-21T13:40:49;6.10;;;3.30;;
24557;SDS011;12726;49.148;8.582;2023-11-21T13:43:51;6.63;;;2.63;;
24557;SDS011;12726;49.148;8.582;2023-11-21T13:46:54;3.55;;;2.75;;
24557;SDS011;12726;49.148;8.582;2023-11-21T13:53:17;2.53;;;2.10;;
24557;SDS011;12726;49.148;8.582;2023-11-21T13:56:13;3.67;;;2.55;;
24557;SDS011;12726;49.148;8.582;2023-11-21T13:59:18;4.47;;;2.40;;
24557;SDS011;12726;49.148;8.582;2023-11-21T14:02:14;3.30;;;2.20;;
24557;SDS011;12726;49.148;8.582;2023-11-21T14:05:20;3.38;;;2.42;;
24557;SDS011;12726;49.148;8.582;2023-11-21T14:08:22;4.93;;;2.22;;
24557;SDS011;12726;49.148;8.582;2023-11-21T14:11:12;3.30;;;2.20;;
24557;SDS011;12726;49.148;8.582;2023-11-21T14:14:02;6.05;;;3.65;;
24557;SDS011;12726;49.148;8.582;2023-11-21T14:16:49;5.38;;;3.08;;
24557;SDS011;12726;49.148;8.582;2023-11-21T14:19:34;7.63;;;2.20;;
24557;SDS011;12726;49.148;8.582;2023-11-21T14:22:25;3.65;;;2.25;;
24557;SDS011;12726;49.148;8.582;2023-11-21T14:25:10;4.10;;;2.25;;
24557;SDS011;12726;49.148;8.582;2023-11-21T14:27:55;4.25;;;2.70;;
24557;SDS011;12726;49.148;8.582;2023-11-21T14:30:41;4.38;;;2.40;;
24557;SDS011;12726;49.148;8.582;2023-11-21T14:33:26;4.93;;;2.60;;
24557;SDS011;12726;49.148;8.582;2023-11-21T14:36:11;4.57;;;2.20;;
24557;SDS011;12726;49.148;8.582;2023-11-21T14:38:58;4.50;;;2.38;;
24557;SDS011;12726;49.148;8.582;2023-11-21T14:41:44;3.38;;;2.40;;
24557;SDS011;12726;49.148;8.582;2023-11-21T14:44:29;4.03;;;2.65;;
24557;SDS011;12726;49.148;8.582;2023-11-21T14:47:19;6.50;;;3.15;;
24557;SDS011;12726;49.148;8.582;2023-11-21T14:50:09;4.78;;;3.15;;
24557;SDS011;12726;49.148;8.582;2023-11-21T14:53:19;4.57;;;2.80;;
24557;SDS011;12726;49.148;8.582;2023-11-21T14:56:27;2.90;;;2.65;;
24557;SDS011;12726;49.148;8.582;2023-11-21T14:59:15;2.85;;;2.55;;
24557;SDS011;12726;49.148;8.582;2023-11-21T15:02:00;6.65;;;2.80;;
24557;SDS011;12726;49.148;8.582;2023-11-21T15:04:58;3.15;;;2.20;;
24557;SDS011;12726;49.148;8.582;2023-11-21T15:07:46;3.65;;;2.50;;
24557;SDS011;12726;49.148;8.582;2023-11-21T15:10:33;6.05;;;2.42;;
24557;SDS011;12726;49.148;8.582;2023-11-21T15:13:30;3.50;;;2.38;;
24557;SDS011;12726;49.148;8.582;2023-11-21T15:16:15;7.30;;;2.88;;
24557;SDS011;12726;49.148;8.582;2023-11-21T15:19:01;7.30;;;3.97;;
24557;SDS011;12726;49.148;8.582;2023-11-21T15:21:47;5.25;;;2.83;;
24557;SDS011;12726;49.148;8.582;2023-11-21T15:24:32;3.50;;;2.72;;
24557;SDS011;12726;49.148;8.582;2023-11-21T15:27:17;5.88;;;3.28;;
24557;SDS011;12726;49.148;8.582;2023-11-21T15:30:05;8.18;;;4.20;;
24557;SDS011;12726;49.148;8.582;2023-11-21T15:32:52;4.90;;;3.13;;
24557;SDS011;12726;49.148;8.582;2023-11-21T15:35:37;6.03;;;3.38;;
24557;SDS011;12726;49.148;8.582;2023-11-21T15:38:24;5.68;;;3.28;;
24557;SDS011;12726;49.148;8.582;2023-11-21T15:41:10;5.15;;;2.78;;
24557;SDS011;12726;49.148;8.582;2023-11-21T15:43:55;6.78;;;2.80;;
24557;SDS011;12726;49.148;8.582;2023-11-21T15:46:42;5.40;;;3.15;;
24557;SDS011;12726;49.148;8.582;2023-11-21T15:49:27;5.68;;;3.10;;
24557;SDS011;12726;49.148;8.582;2023-11-21T15:52:13;5.20;;;3.40;;
24557;SDS011;12726;49.148;8.582;2023-11-21T15:54:58;6.25;;;3.67;;
24557;SDS011;12726;49.148;8.582;2023-11-21T15:57:44;8.27;;;4.82;;
24557;SDS011;12726;49.148;8.582;2023-11-21T16:00:29;7.07;;;5.35;;
24557;SDS011;12726;49.148;8.582;2023-11-21T16:03:16;9.98;;;6.93;;
24557;SDS011;12726;49.148;8.582;2023-11-21T16:06:01;10.50;;;7.30;;
24557;SDS011;12726;49.148;8.582;2023-11-21T16:08:48;11.75;;;6.90;;
24557;SDS011;12726;49.148;8.582;2023-11-21T16:11:33;11.35;;;7.85;;
24557;SDS011;12726;49.148;8.582;2023-11-21T16:14:20;10.38;;;6.70;;
24557;SDS011;12726;49.148;8.582;2023-11-21T16:17:09;10.65;;;6.70;;
24557;SDS011;12726;49.148;8.582;2023-11-21T16:19:57;9.88;;;6.32;;
24557;SDS011;12726;49.148;8.582;2023-11-21T16:22:43;8.45;;;5.88;;
24557;SDS011;12726;49.148;8.582;2023-11-21T16:25:29;11.35;;;6.68;;
24557;SDS011;12726;49.148;8.582;2023-11-21T16:28:15;9.20;;;7.65;;
24557;SDS011;12726;49.148;8.582;2023-11-21T16:31:02;11.52;;;8.38;;
24557;SDS011;12726;49.148;8.582;2023-11-21T16:33:47;12.20;;;7.50;;
24557;SDS011;12726;49.148;8.582;2023-11-21T16:36:34;12.25;;;8.48;;
24557;SDS011;12726;49.148;8.582;2023-11-21T16:39:19;13.52;;;6.97;;
24557;SDS011;12726;49.148;8.582;2023-11-21T16:42:05;7.13;;;5.82;;
24557;SDS011;12726;49.148;8.582;2023-11-21T16:44:51;7.97;;;6.47;;
24557;SDS011;12726;49.148;8.582;2023-11-21T16:47:37;9.77;;;6.55;;
24557;SDS011;12726;49.148;8.582;2023-11-21T16:50:23;13.93;;;7.95;;
24557;SDS011;12726;49.148;8.582;2023-11-21T16:53:11;10.65;;;7.22;;
24557;SDS011;12726;49.148;8.582;2023-11-21T16:55:57;10.18;;;7.40;;
24557;SDS011;12726;49.148;8.582;2023-11-21T16:58:44;16.20;;;8.40;;
24557;SDS011;12726;49.148;8.582;2023-11-21T17:01:29;18.33;;;10.52;;